Time;durP1;ratioP1;P1;durP2;ratioP2;P2;SDS_P1;SDS_P2;PMS_P1;PMS_P2;Temp;Humidity;BMP_temperature;BMP_pressure;BME280_temperature;BME280_humidity;BME280_pressure;Samples;Min_cycle;Max_cycle;Signal;HPM_P1;HPM_P2
2021/01/02 00:01:04;;;;;;;78.20;35.10;;;;;;;2.46;70.21;98775.95;251737;1131;115227;-77
2021/01/02 00:06:09;;;;;;;81.83;34.80;;;;;;;2.43;70.49;98783.93;251636;1133;115013;-78
2021/01/02 00:11:44;;;;;;;71.55;33.75;;;;;;;2.46;70.50;98791.70;251628;1133;115042;-77
2021/01/02 00:17:01;;;;;;;83.82;36.53;;;;;;;2.47;70.45;98803.06;251849;1134;114809;-76
2021/01/02 00:22:10;;;;;;;81.87;34.83;;;;;;;2.45;70.52;98797.88;251718;1134;117095;-78
2021/01/02 00:27:28;;;;;;;88.03;36.37;;;;;;;2.46;70.38;98803.98;251790;1132;115383;-75
2021/01/02 00:32:53;;;;;;;78.93;33.87;;;;;;;2.51;70.13;98802.05;251878;1133;114885;-74
2021/01/02 00:38:06;;;;;;;;;;;;;;;2.51;70.46;98810.78;251611;1134;115090;-75
2021/01/02 00:43:08;;;;;;;72.97;31.93;;;;;;;2.48;70.52;98823.16;252056;1132;199778;-75
2021/01/02 00:48:12;;;;;;;71.23;32.03;;;;;;;2.44;70.39;98808.42;251831;1134;114960;-76
2021/01/02 00:53:26;;;;;;;75.42;32.08;;;;;;;2.40;70.65;98823.42;251277;1132;115468;-76
2021/01/02 00:58:45;;;;;;;67.90;30.85;;;;;;;2.37;70.42;98824.37;251926;1132;114904;-77
2021/01/02 01:04:10;;;;;;;77.20;33.37;;;;;;;2.32;70.38;98830.70;251885;1134;115034;-75
2021/01/02 01:09:16;;;;;;;74.47;33.80;;;;;;;2.34;70.57;98829.75;251922;1132;115026;-75
2021/01/02 01:14:19;;;;;;;78.90;34.23;;;;;;;2.35;70.79;98823.58;251999;1135;116140;-75
2021/01/02 01:19:28;;;;;;;73.65;32.38;;;;;;;2.41;70.76;98834.77;252014;1134;114790;-75
2021/01/02 01:25:06;;;;;;;75.60;32.57;;;;;;;2.41;70.65;98826.89;251810;1133;114824;-75
2021/01/02 01:30:12;;;;;;;61.67;29.03;;;;;;;2.30;70.24;98822.00;251839;1134;114988;-76
2021/01/02 01:35:25;;;;;;;61.50;28.47;;;;;;;2.21;70.34;98806.53;251782;1132;114875;-77
2021/01/02 01:40:31;;;;;;;68.57;31.00;;;;;;;2.15;70.18;98814.63;252088;1132;114962;-77
2021/01/02 01:45:37;;;;;;;75.23;30.80;;;;;;;2.16;70.21;98824.20;251789;1135;115127;-79
2021/01/02 01:51:30;;;;;;;78.77;32.20;;;;;;;2.19;70.63;98824.11;251755;1132;115416;-79
2021/01/02 01:56:42;;;;;;;66.03;30.43;;;;;;;2.20;70.71;98810.92;251576;1133;115039;-79
2021/01/02 02:01:53;;;;;;;67.30;31.75;;;;;;;2.20;70.70;98821.42;251775;1135;114760;-78
2021/01/02 02:07:01;;;;;;;79.13;34.00;;;;;;;2.18;70.64;98828.52;251770;1132;115193;-79
2021/01/02 02:12:05;;;;;;;86.03;34.23;;;;;;;2.15;70.43;98814.63;251937;1132;114954;-79
2021/01/02 02:17:11;;;;;;;83.03;35.13;;;;;;;2.20;70.72;98820.57;251641;1132;115852;-79
2021/01/02 02:22:16;;;;;;;83.90;36.97;;;;;;;2.20;70.95;98825.83;252019;1132;115053;-79
2021/01/02 02:27:34;;;;;;;85.00;37.70;;;;;;;2.21;70.96;98831.05;251849;1132;116122;-78
2021/01/02 02:32:39;;;;;;;84.77;37.23;;;;;;;2.21;70.09;98838.03;251539;1133;114848;-79
2021/01/02 02:37:45;;;;;;;78.70;34.63;;;;;;;2.25;70.61;98830.03;251792;1134;114916;-79
2021/01/02 02:42:54;;;;;;;73.60;32.95;;;;;;;2.21;70.60;98830.16;251664;1134;115516;-80
2021/01/02 02:48:04;;;;;;;74.23;31.67;;;;;;;2.16;70.26;98827.69;251762;1132;115028;-79
2021/01/02 02:53:11;;;;;;;80.95;35.25;;;;;;;2.13;70.53;98812.03;251638;1133;114731;-79
2021/01/02 02:58:13;;;;;;;71.70;32.07;;;;;;;2.09;70.46;98824.39;251813;1134;114727;-78
2021/01/02 03:03:16;;;;;;;63.63;28.33;;;;;;;2.09;70.46;98821.77;251771;1132;115175;-80
2021/01/02 03:08:18;;;;;;;63.10;29.60;;;;;;;2.10;70.81;98815.61;251531;1133;115675;-79
2021/01/02 03:13:20;;;;;;;63.03;29.47;;;;;;;2.16;71.03;98826.83;251670;1133;115209;-80
2021/01/02 03:18:23;;;;;;;66.05;30.45;;;;;;;2.20;70.48;98824.05;251637;1132;114871;-79
2021/01/02 03:23:25;;;;;;;68.20;30.53;;;;;;;2.21;70.23;98819.66;251615;1133;114874;-79
2021/01/02 03:28:28;;;;;;;64.80;30.83;;;;;;;2.18;70.32;98832.91;251638;1133;115093;-78
2021/01/02 03:33:30;;;;;;;71.80;32.37;;;;;;;2.20;70.39;98828.45;252022;1132;114808;-78
2021/01/02 03:38:34;;;;;;;70.67;32.50;;;;;;;2.19;70.51;98834.62;251578;1134;114796;-77
2021/01/02 03:43:37;;;;;;;57.38;29.42;;;;;;;2.24;70.21;98815.20;251739;1134;115370;-78
2021/01/02 03:48:39;;;;;;;54.47;28.07;;;;;;;2.27;70.40;98830.83;251679;1134;115074;-79
2021/01/02 03:53:41;;;;;;;60.87;29.33;;;;;;;2.28;70.68;98821.20;251654;1132;114990;-78
2021/01/02 03:58:44;;;;;;;60.67;28.93;;;;;;;2.29;70.31;98825.54;251724;1132;114924;-78
2021/01/02 04:03:46;;;;;;;61.25;27.02;;;;;;;2.32;70.99;98834.17;251542;1132;114995;-79
2021/01/02 04:08:48;;;;;;;61.68;28.12;;;;;;;2.32;70.91;98842.05;251869;1133;115006;-79
2021/01/02 04:13:51;;;;;;;65.53;31.37;;;;;;;2.31;70.76;98844.70;251676;1133;115145;-78
2021/01/02 04:18:53;;;;;;;69.93;30.73;;;;;;;2.32;70.58;98830.70;251673;1132;115054;-77
2021/01/02 04:23:55;;;;;;;66.50;29.63;;;;;;;2.30;70.32;98833.35;251511;1133;114951;-77
2021/01/02 04:28:58;;;;;;;75.50;31.40;;;;;;;2.29;70.60;98822.91;251618;1132;115169;-77
2021/01/02 04:34:03;;;;;;;65.60;30.45;;;;;;;2.34;71.01;98827.13;251840;1133;114739;-77
2021/01/02 04:39:06;;;;;;;55.70;27.73;;;;;;;2.41;70.48;98830.38;251896;1131;114900;-77
2021/01/02 04:44:08;;;;;;;53.03;25.37;;;;;;;2.44;70.50;98834.68;251677;1132;115236;-77
2021/01/02 04:49:11;;;;;;;53.37;26.07;;;;;;;2.48;70.45;98836.29;252049;1132;114850;-77
2021/01/02 04:54:19;;;;;;;50.50;23.83;;;;;;;2.45;70.44;98839.05;251557;1132;115208;-77
2021/01/02 04:59:28;;;;;;;46.28;23.35;;;;;;;2.44;70.39;98846.04;251545;1132;115008;-77
2021/01/02 05:04:30;;;;;;;43.67;23.03;;;;;;;2.43;70.35;98853.98;251902;1132;114898;-77
2021/01/02 05:09:32;;;;;;;46.70;23.73;;;;;;;2.41;70.37;98856.64;251574;1132;114921;-77
2021/01/02 05:14:35;;;;;;;45.07;22.70;;;;;;;2.38;70.41;98854.14;248870;1132;114930;-78
2021/01/02 05:19:37;;;;;;;52.13;24.13;;;;;;;2.37;70.39;98861.12;251847;1134;115172;-77
2021/01/02 05:24:39;;;;;;;53.00;26.52;;;;;;;2.40;70.40;98859.33;251700;1133;114972;-78
2021/01/02 05:29:42;;;;;;;49.50;24.47;;;;;;;2.39;70.39;98862.88;251766;1132;115297;-77
2021/01/02 05:34:44;;;;;;;43.83;22.60;;;;;;;2.41;70.58;98872.39;251809;1132;114905;-77
2021/01/02 05:39:50;;;;;;;44.73;23.33;;;;;;;2.39;70.03;98879.48;251429;1133;115182;-77
2021/01/02 05:44:58;;;;;;;42.13;22.57;;;;;;;2.37;70.39;98871.63;251709;1132;114930;-79
2021/01/02 05:50:02;;;;;;;45.40;22.87;;;;;;;2.34;70.35;98866.51;251618;1135;114824;-78
2021/01/02 05:55:05;;;;;;;45.47;23.33;;;;;;;2.35;70.43;98867.36;251538;1132;115384;-77
2021/01/02 06:00:09;;;;;;;46.63;23.40;;;;;;;2.39;70.26;98879.48;251724;1133;116123;-77
2021/01/02 06:05:12;;;;;;;48.45;23.87;;;;;;;2.39;70.13;98883.88;251561;1132;116032;-77
2021/01/02 06:10:15;;;;;;;47.77;23.80;;;;;;;2.36;69.92;98884.83;251888;1132;114994;-77
2021/01/02 06:15:18;;;;;;;39.08;20.82;;;;;;;2.32;70.24;98888.46;251588;1132;115581;-77
2021/01/02 06:20:20;;;;;;;43.47;22.70;;;;;;;2.27;70.09;98880.70;251784;1132;115076;-76
2021/01/02 06:25:23;;;;;;;43.53;22.97;;;;;;;2.25;70.02;98892.19;251904;1132;114805;-78
2021/01/02 06:30:26;;;;;;;45.70;22.43;;;;;;;2.21;69.89;98895.78;251959;1134;115207;-78
2021/01/02 06:35:28;;;;;;;43.90;23.93;;;;;;;2.17;70.04;98904.66;251573;1132;114890;-78
2021/01/02 06:40:37;;;;;;;44.98;22.90;;;;;;;2.19;70.18;98902.87;251940;1132;114822;-78
2021/01/02 06:45:40;;;;;;;44.47;23.30;;;;;;;2.22;69.94;98903.63;251720;1132;115273;-82
2021/01/02 06:50:47;;;;;;;40.07;21.17;;;;;;;2.18;70.01;98904.64;252015;1132;114953;-81
2021/01/02 06:56:06;;;;;;;40.63;20.90;;;;;;;2.12;70.00;98907.44;251909;1132;115367;-81
2021/01/02 07:01:29;;;;;;;47.37;22.63;;;;;;;2.08;69.92;98918.94;252006;1132;115337;-79
2021/01/02 07:06:37;;;;;;;41.25;20.92;;;;;;;2.04;70.34;98922.57;251863;1132;114922;-79
2021/01/02 07:11:43;;;;;;;42.07;21.67;;;;;;;2.02;69.91;98904.23;251982;1132;115049;-80
2021/01/02 07:16:57;;;;;;;44.13;21.47;;;;;;;2.02;70.24;98913.88;251932;1133;114946;-81
2021/01/02 07:22:16;;;;;;;47.20;23.07;;;;;;;2.02;70.31;98922.59;251828;1134;115020;-78
2021/01/02 07:27:24;;;;;;;44.73;22.37;;;;;;;2.07;70.31;98922.45;251696;1132;115169;-81
2021/01/02 07:32:29;;;;;;;48.15;24.45;;;;;;;2.11;70.35;98927.59;251805;1134;114837;-82
2021/01/02 07:37:39;;;;;;;49.03;24.18;;;;;;;2.18;70.45;98930.03;252062;1132;115063;-79
2021/01/02 07:42:53;;;;;;;48.40;23.50;;;;;;;2.22;70.18;98935.14;251941;1132;115159;-86
2021/01/02 07:47:58;;;;;;;48.83;24.00;;;;;;;2.24;70.60;98937.70;251831;1134;114729;-78
2021/01/02 07:53:02;;;;;;;42.50;22.33;;;;;;;2.25;70.32;98942.06;251511;1134;114870;-76
2021/01/02 07:58:04;;;;;;;51.20;25.08;;;;;;;2.29;70.47;98939.30;251758;1132;115081;-75
2021/01/02 08:03:07;;;;;;;46.20;23.57;;;;;;;2.37;70.36;98932.03;251936;1132;115044;-76
2021/01/02 08:08:10;;;;;;;47.00;24.77;;;;;;;2.45;70.42;98931.82;251953;1132;115295;-76
2021/01/02 08:13:18;;;;;;;44.70;24.67;;;;;;;2.51;70.16;98941.25;251706;1135;114740;-78
2021/01/02 08:18:22;;;;;;;44.23;23.73;;;;;;;2.53;70.46;98944.70;251969;1133;114893;-75
2021/01/02 08:23:24;;;;;;;47.60;24.27;;;;;;;2.53;70.21;98945.56;251889;1132;114858;-74
2021/01/02 08:28:27;;;;;;;44.97;25.17;;;;;;;2.60;70.60;98956.73;251791;1133;114882;-77
2021/01/02 08:33:31;;;;;;;50.37;26.07;;;;;;;2.63;70.47;98954.02;251878;1134;114634;-80
2021/01/02 08:38:33;;;;;;;50.20;26.10;;;;;;;2.64;70.69;98960.12;251995;1132;114858;-78
2021/01/02 08:43:37;;;;;;;54.93;26.17;;;;;;;2.67;70.37;98960.03;251936;1133;114811;-80
2021/01/02 08:48:46;;;;;;;51.55;27.35;;;;;;;2.74;70.61;98969.44;251861;1134;115108;-78
2021/01/02 08:53:49;;;;;;;51.27;27.83;;;;;;;2.78;70.36;98976.31;251770;1132;114843;-78
2021/01/02 08:58:52;;;;;;;46.50;25.60;;;;;;;2.82;70.45;98964.82;251879;1132;115183;-78
2021/01/02 09:03:55;;;;;;;51.97;26.60;;;;;;;2.85;70.52;98977.84;251959;1132;114912;-77
2021/01/02 09:09:08;;;;;;;47.43;25.57;;;;;;;2.85;70.32;98975.20;251974;1132;114977;-75
2021/01/02 09:14:10;;;;;;;54.15;27.40;;;;;;;2.87;70.56;98981.28;252079;1132;115910;-74
2021/01/02 09:19:25;;;;;;;44.37;24.43;;;;;;;2.90;70.47;98982.97;251779;1135;114881;-74
2021/01/02 09:24:27;;;;;;;50.30;26.35;;;;;;;2.92;70.79;98984.64;251946;1134;114999;-74
2021/01/02 09:29:30;;;;;;;51.73;27.30;;;;;;;3.03;70.78;98976.41;251930;1133;115552;-77
2021/01/02 09:34:32;;;;;;;52.23;27.23;;;;;;;3.15;71.23;98981.25;251813;1132;115509;-75
2021/01/02 09:39:34;;;;;;;53.00;27.65;;;;;;;3.25;70.57;98994.95;251892;1132;114923;-76
2021/01/02 09:44:38;;;;;;;47.97;27.17;;;;;;;3.32;70.66;98999.95;251789;1135;115197;-75
2021/01/02 09:49:40;;;;;;;53.90;28.13;;;;;;;3.42;70.67;98989.98;251898;1134;115878;-75
2021/01/02 09:54:42;;;;;;;55.80;28.27;;;;;;;3.58;71.18;98997.38;252000;1134;114772;-75
2021/01/02 09:59:45;;;;;;;54.03;28.50;;;;;;;3.69;71.33;98982.91;251860;1134;114826;-75
2021/01/02 10:04:49;;;;;;;53.58;28.40;;;;;;;3.75;70.89;98987.97;251887;1132;114827;-75
2021/01/02 10:09:51;;;;;;;60.50;32.33;;;;;;;3.85;71.19;98970.08;252019;1133;114988;-76
2021/01/02 10:14:54;;;;;;;62.53;31.60;;;;;;;4.03;71.16;98972.03;252048;1134;114917;-75
2021/01/02 10:19:57;;;;;;;59.27;31.27;;;;;;;4.21;70.82;98975.78;251914;1132;114846;-74
2021/01/02 10:24:59;;;;;;;54.77;30.57;;;;;;;4.45;71.20;98960.83;252151;1135;114946;-75
2021/01/02 10:30:06;;;;;;;57.80;31.30;;;;;;;4.70;70.98;98950.17;252291;1134;115235;-75
2021/01/02 10:35:11;;;;;;;58.03;31.40;;;;;;;4.95;70.82;98938.64;251973;1132;115157;-75
2021/01/02 10:40:18;;;;;;;52.77;30.03;;;;;;;5.08;71.32;98937.22;251970;1132;115132;-76
2021/01/02 10:45:20;;;;;;;51.53;28.73;;;;;;;5.20;71.26;98925.31;251858;1135;115172;-76
2021/01/02 10:50:22;;;;;;;53.40;31.70;;;;;;;5.27;70.97;98921.48;251913;1132;114739;-75
2021/01/02 10:55:26;;;;;;;55.28;29.37;;;;;;;5.24;69.74;98924.25;251912;1132;115443;-74
2021/01/02 11:00:28;;;;;;;52.33;31.00;;;;;;;5.19;70.44;98915.66;251921;1134;114755;-76
2021/01/02 11:05:31;;;;;;;58.20;30.63;;;;;;;5.18;70.61;98921.87;251929;1132;115088;-82
2021/01/02 11:10:33;;;;;;;52.07;30.30;;;;;;;5.22;69.87;98912.89;251896;1132;114911;-78
2021/01/02 11:15:36;;;;;;;55.50;30.77;;;;;;;5.31;70.61;98916.94;251923;1134;114987;-78
2021/01/02 11:20:39;;;;;;;55.65;29.42;;;;;;;5.40;70.76;98919.16;251983;1132;115176;-78
2021/01/02 11:25:41;;;;;;;58.97;30.50;;;;;;;5.51;70.52;98903.74;251908;1132;114810;-78
2021/01/02 11:30:45;;;;;;;55.47;28.57;;;;;;;5.63;71.12;98887.34;252004;1134;114801;-80
2021/01/02 11:35:47;;;;;;;55.97;30.13;;;;;;;5.74;70.67;98889.53;251966;1132;115122;-77
2021/01/02 11:40:51;;;;;;;54.93;30.77;;;;;;;5.83;70.27;98886.45;250521;1132;115164;-78
2021/01/02 11:45:54;;;;;;;52.55;29.85;;;;;;;5.88;70.75;98889.77;251929;1132;114936;-75
2021/01/02 11:50:56;;;;;;;56.57;30.80;;;;;;;5.92;69.73;98886.08;251944;1132;114909;-79
2021/01/02 11:55:58;;;;;;;58.43;31.03;;;;;;;5.97;70.59;98877.09;251763;1132;114851;-81
2021/01/02 12:01:01;;;;;;;56.60;30.67;;;;;;;6.05;69.89;98873.17;251747;1132;117140;-78
2021/01/02 12:06:03;;;;;;;56.00;31.43;;;;;;;6.12;69.33;98873.75;251928;1132;114981;-80
2021/01/02 12:11:06;;;;;;;57.88;32.90;;;;;;;6.20;70.46;98878.67;251928;1132;115112;-76
2021/01/02 12:16:09;;;;;;;59.33;33.27;;;;;;;6.24;69.55;98877.59;252011;1133;114937;-79
2021/01/02 12:21:18;;;;;;;62.27;34.27;;;;;;;6.27;69.86;98869.52;251946;1134;115263;-79
2021/01/02 12:26:20;;;;;;;63.40;34.00;;;;;;;6.30;70.21;98866.73;251858;1132;114703;-78
2021/01/02 12:31:27;;;;;;;64.17;35.43;;;;;;;6.30;69.36;98866.73;251822;1134;114975;-79
2021/01/02 12:36:33;;;;;;;48.37;28.70;;;;;;;6.29;69.54;98865.89;251582;1134;114874;-77
2021/01/02 12:41:35;;;;;;;49.80;27.97;;;;;;;6.31;69.93;98868.44;251710;1132;114757;-78
2021/01/02 12:46:46;;;;;;;46.20;27.13;;;;;;;6.31;69.37;98879.86;251854;1132;114959;-78
2021/01/02 12:51:53;;;;;;;54.23;28.73;;;;;;;6.30;69.24;98878.16;251882;1132;115039;-77
2021/01/02 12:56:57;;;;;;;51.97;28.53;;;;;;;6.37;69.32;98884.86;251641;1132;115205;-77
2021/01/02 13:02:07;;;;;;;59.40;33.30;;;;;;;6.46;70.45;98891.52;251983;1134;114909;-77
2021/01/02 13:07:11;;;;;;;51.77;30.93;;;;;;;6.49;69.08;98898.42;251824;1135;115118;-78
2021/01/02 13:12:17;;;;;;;51.20;30.73;;;;;;;6.49;69.70;98890.48;251994;1133;115538;-83
2021/01/02 13:17:19;;;;;;;;;;;;;;;6.49;70.08;98893.13;251849;1133;114792;-83
2021/01/02 13:22:23;;;;;;;53.10;29.80;;;;;;;6.50;69.10;98894.87;251751;1132;102430;-82
2021/01/02 13:27:25;;;;;;;50.10;30.95;;;;;;;6.49;69.02;98894.02;251916;1132;114748;-84
2021/01/02 13:32:28;;;;;;;62.47;35.30;;;;;;;6.52;69.11;98900.92;251841;1133;115466;-85
2021/01/02 13:37:31;;;;;;;79.83;45.67;;;;;;;6.51;70.18;98902.71;247855;1132;115230;-82
2021/01/02 13:42:34;;;;;;;62.53;35.60;;;;;;;6.51;69.96;98913.28;247743;1132;115216;-82
2021/01/02 13:47:38;;;;;;;82.80;46.43;;;;;;;6.53;69.99;98919.37;251591;1134;114848;-84
2021/01/02 13:52:44;;;;;;;66.40;38.67;;;;;;;6.55;70.18;98916.64;251965;1132;115194;-83
2021/01/02 13:57:46;;;;;;;63.27;37.47;;;;;;;6.55;70.21;98912.20;252059;1132;115176;-79
2021/01/02 14:02:49;;;;;;;70.87;40.03;;;;;;;6.53;69.06;98926.45;252040;1132;115032;-80
2021/01/02 14:07:55;;;;;;;68.50;40.77;;;;;;;6.49;69.03;98916.92;250589;1132;115384;-80
2021/01/02 14:12:57;;;;;;;70.20;40.40;;;;;;;6.44;69.45;98925.08;252032;1132;114498;-78
2021/01/02 14:18:02;;;;;;;62.95;37.95;;;;;;;6.35;69.87;98921.10;251850;1135;115047;-76
2021/01/02 14:23:05;;;;;;;58.57;34.57;;;;;;;6.27;68.98;98925.87;251954;1132;115379;-80
2021/01/02 14:28:07;;;;;;;62.40;35.03;;;;;;;6.18;69.14;98928.07;251610;1132;114914;-79
2021/01/02 14:33:09;;;;;;;65.80;36.77;;;;;;;6.14;69.89;98943.20;249835;1133;115424;-85
2021/01/02 14:38:12;;;;;;;62.47;35.20;;;;;;;6.11;70.12;98941.59;246701;1132;114925;-86
2021/01/02 14:43:14;;;;;;;69.30;38.83;;;;;;;6.07;68.96;98941.78;248731;1134;115318;-83
2021/01/02 14:48:17;;;;;;;76.77;42.77;;;;;;;6.02;69.52;98942.00;251765;1134;115776;-78
2021/01/02 14:53:19;;;;;;;79.70;44.87;;;;;;;5.98;70.11;98945.70;251969;1132;115047;-81
2021/01/02 14:58:22;;;;;;;80.47;45.27;;;;;;;5.92;69.44;98941.55;251653;1133;114951;-79
2021/01/02 15:03:24;;;;;;;85.80;46.70;;;;;;;5.85;69.87;98929.52;251538;1132;115442;-80
2021/01/02 15:08:26;;;;;;;89.15;50.65;;;;;;;5.78;69.98;98935.99;251449;1132;114961;-85
2021/01/02 15:13:30;;;;;;;94.17;50.88;;;;;;;5.72;69.68;98930.98;251763;1133;114905;-82
2021/01/02 15:18:33;;;;;;;84.13;48.13;;;;;;;5.63;70.08;98928.73;251763;1134;114863;-82
2021/01/02 15:23:37;;;;;;;92.47;50.03;;;;;;;5.56;69.36;98929.92;251744;1134;115057;-83
2021/01/02 15:28:40;;;;;;;82.62;46.60;;;;;;;5.56;70.21;98941.34;252020;1132;116225;-83
2021/01/02 15:33:42;;;;;;;83.77;49.00;;;;;;;5.55;70.33;98933.50;251673;1133;115167;-82
2021/01/02 15:38:45;;;;;;;88.90;49.47;;;;;;;5.53;69.39;98919.50;251909;1132;115199;-82
2021/01/02 15:43:48;;;;;;;93.07;51.77;;;;;;;5.50;69.39;98911.70;251897;1132;115188;-82
2021/01/02 15:48:55;;;;;;;89.63;50.43;;;;;;;5.42;69.87;98904.98;251787;1133;114824;-85
2021/01/02 15:54:16;;;;;;;85.80;50.37;;;;;;;5.35;69.39;98911.45;251880;1132;114652;-83
2021/01/02 15:59:19;;;;;;;95.03;51.83;;;;;;;5.28;69.37;98915.28;251811;1131;115282;-83
2021/01/02 16:04:21;;;;;;;89.10;51.53;;;;;;;5.20;69.76;98910.34;251646;1134;115124;-82
2021/01/02 16:09:24;;;;;;;90.70;50.75;;;;;;;5.12;69.92;98916.84;251770;1132;114807;-82
2021/01/02 16:14:27;;;;;;;94.07;52.03;;;;;;;5.05;69.76;98918.02;251908;1132;115056;-81
2021/01/02 16:19:29;;;;;;;95.70;52.10;;;;;;;5.04;69.41;98924.23;251851;1133;114597;-84
2021/01/02 16:24:33;;;;;;;98.40;53.35;;;;;;;5.05;69.11;98925.94;251839;1132;115125;-84
2021/01/02 16:29:36;;;;;;;89.67;51.50;;;;;;;5.05;69.68;98918.02;251841;1132;114959;-81
2021/01/02 16:34:50;;;;;;;95.43;53.97;;;;;;;4.98;70.18;98909.51;251883;1133;114845;-84
2021/01/02 16:39:54;;;;;;;97.73;53.87;;;;;;;4.94;70.74;98913.20;251741;1135;114803;-84
2021/01/02 16:44:57;;;;;;;94.40;53.33;;;;;;;4.91;70.05;98916.81;251865;1132;114959;-80
2021/01/02 16:50:00;;;;;;;91.65;52.75;;;;;;;4.89;70.59;98912.52;251860;1134;115085;-78
2021/01/02 16:55:06;;;;;;;93.13;53.20;;;;;;;4.83;70.10;98920.70;251795;1132;114926;-73
2021/01/02 17:00:10;;;;;;;84.75;50.30;;;;;;;4.75;70.08;98923.63;251944;1133;115105;-74
2021/01/02 17:05:12;;;;;;;92.57;51.23;;;;;;;4.66;69.73;98918.73;251668;1132;114712;-82
2021/01/02 17:10:15;;;;;;;94.33;52.23;;;;;;;4.65;70.22;98903.83;251864;1132;114823;-78
2021/01/02 17:15:17;;;;;;;104.45;58.50;;;;;;;4.69;69.54;98908.08;251916;1134;115092;-77
2021/01/02 17:20:23;;;;;;;100.30;57.37;;;;;;;4.72;70.39;98908.81;251709;1132;115206;-78
2021/01/02 17:25:25;;;;;;;115.87;60.60;;;;;;;4.73;70.83;98899.97;251877;1132;115339;-78
2021/01/02 17:30:27;;;;;;;108.23;59.17;;;;;;;4.76;70.29;98908.69;251595;1133;115395;-76
2021/01/02 17:35:30;;;;;;;106.60;57.47;;;;;;;4.73;70.36;98899.97;251916;1132;115025;-75
2021/01/02 17:40:32;;;;;;;109.20;59.73;;;;;;;4.70;70.69;98900.09;251807;1133;115794;-74
2021/01/02 17:45:41;;;;;;;103.00;58.28;;;;;;;4.66;70.29;98895.02;251876;1132;115093;-74
2021/01/02 17:50:43;;;;;;;106.00;58.60;;;;;;;4.62;69.60;98890.77;251912;1132;115479;-75
2021/01/02 17:55:46;;;;;;;118.73;64.13;;;;;;;4.61;70.07;98892.55;251630;1134;115048;-74
2021/01/02 18:00:48;;;;;;;109.87;58.33;;;;;;;4.60;69.58;98901.38;251781;1132;115168;-84
2021/01/02 18:05:51;;;;;;;111.00;62.95;;;;;;;4.65;70.73;98903.83;251788;1133;115004;-80
2021/01/02 18:10:53;;;;;;;112.97;66.30;;;;;;;4.67;70.08;98902.85;251828;1132;115321;-79
2021/01/02 18:15:55;;;;;;;122.17;68.53;;;;;;;4.62;69.40;98904.83;251869;1135;115066;-79
2021/01/02 18:20:58;;;;;;;129.67;69.83;;;;;;;4.57;69.57;98908.55;251555;1132;115144;-80
2021/01/02 18:26:02;;;;;;;118.30;65.67;;;;;;;4.51;70.41;98907.86;251980;1131;115102;-81
2021/01/02 18:31:09;;;;;;;128.27;68.95;;;;;;;4.44;69.77;98913.44;251882;1134;115095;-80
2021/01/02 18:36:19;;;;;;;126.37;70.37;;;;;;;4.37;70.01;98915.45;251657;1132;115030;-80
2021/01/02 18:41:28;;;;;;;124.30;67.83;;;;;;;4.32;70.18;98916.58;251794;1134;114863;-81
2021/01/02 18:46:34;;;;;;;136.97;72.20;;;;;;;4.25;69.75;98916.80;251675;1135;115036;-79
2021/01/02 18:51:43;;;;;;;138.93;75.57;;;;;;;4.26;69.40;98915.88;251864;1132;115046;-83
2021/01/02 18:56:50;;;;;;;125.55;70.17;;;;;;;4.27;70.20;98916.73;251853;1134;115034;-84
2021/01/02 19:01:57;;;;;;;127.60;70.97;;;;;;;4.28;70.15;98918.47;251976;1134;115066;-83
2021/01/02 19:07:03;;;;;;;126.00;68.83;;;;;;;4.29;70.22;98914.91;251903;1132;115622;-83
2021/01/02 19:12:09;;;;;;;144.83;80.00;;;;;;;4.29;69.79;98924.59;251701;1132;114851;-77
2021/01/02 19:17:16;;;;;;;121.10;65.33;;;;;;;4.24;70.00;98916.84;251814;1135;115228;-82
2021/01/02 19:22:19;;;;;;;120.17;64.03;;;;;;;4.18;69.94;98907.42;251841;1132;114969;-83
2021/01/02 19:27:22;;;;;;;116.07;64.00;;;;;;;4.15;70.17;98907.53;251665;1133;115087;-82
2021/01/02 19:32:24;;;;;;;119.80;64.93;;;;;;;4.10;70.31;98895.45;251763;1135;114777;-82
2021/01/02 19:37:27;;;;;;;121.23;63.27;;;;;;;4.05;69.32;98910.58;251630;1132;115164;-81
2021/01/02 19:42:30;;;;;;;122.10;65.40;;;;;;;4.04;70.13;98912.33;251221;1132;115207;-83
2021/01/02 19:47:44;;;;;;;116.67;63.63;;;;;;;4.01;69.26;98912.48;251228;1132;115074;-82
2021/01/02 19:52:47;;;;;;;114.33;63.37;;;;;;;4.00;70.11;98916.00;251830;1133;115021;-81
2021/01/02 19:57:50;;;;;;;121.13;65.57;;;;;;;3.98;70.20;98921.34;251932;1135;114675;-84
2021/01/02 20:03:10;;;;;;;118.20;61.87;;;;;;;3.97;69.78;98919.63;251800;1132;115034;-85
2021/01/02 20:08:12;;;;;;;112.20;62.23;;;;;;;3.99;70.07;98923.05;251908;1133;115046;-85
2021/01/02 20:13:32;;;;;;;102.37;60.07;;;;;;;3.96;69.97;98924.94;250948;1133;114872;-78
2021/01/02 20:18:35;;;;;;;107.83;60.57;;;;;;;3.88;70.27;98919.96;251625;1132;114801;-75
2021/01/02 20:23:37;;;;;;;111.87;61.87;;;;;;;3.84;69.93;98912.21;251727;1133;115239;-76
2021/01/02 20:28:40;;;;;;;132.60;71.63;;;;;;;3.85;69.99;98908.69;251860;1134;114935;-75
2021/01/02 20:33:44;;;;;;;134.40;68.67;;;;;;;3.87;70.49;98897.16;251859;1136;115018;-76
2021/01/02 20:38:49;;;;;;;141.80;74.03;;;;;;;3.90;69.66;98893.56;251859;1132;115123;-76
2021/01/02 20:43:52;;;;;;;132.60;74.20;;;;;;;3.90;70.11;98897.05;251901;1133;114980;-76
2021/01/02 20:48:56;;;;;;;130.18;73.52;;;;;;;3.91;70.58;98896.16;251880;1135;115003;-76
2021/01/02 20:53:59;;;;;;;136.57;72.47;;;;;;;3.96;70.07;98893.34;251724;1135;114927;-76
2021/01/02 20:59:04;;;;;;;130.82;69.05;;;;;;;3.96;70.31;98907.36;251736;1133;114957;-76
2021/01/02 21:04:09;;;;;;;133.97;70.80;;;;;;;3.94;70.18;98909.21;251818;1134;114900;-76
2021/01/02 21:09:18;;;;;;;129.18;69.55;;;;;;;3.93;69.78;98917.15;252072;1133;115266;-76
2021/01/02 21:14:23;;;;;;;124.97;67.60;;;;;;;3.89;69.85;98915.55;252165;1132;115275;-76
2021/01/02 21:19:30;;;;;;;141.30;71.80;;;;;;;3.87;70.54;98912.10;251871;1134;114773;-76
2021/01/02 21:24:32;;;;;;;148.38;75.05;;;;;;;3.89;70.59;98911.14;251934;1132;115954;-76
2021/01/02 21:29:37;;;;;;;145.38;76.45;;;;;;;3.93;70.44;98912.73;252015;1132;116475;-75
2021/01/02 21:34:40;;;;;;;150.33;78.30;;;;;;;3.93;69.77;98918.00;251880;1131;114945;-76
2021/01/02 21:39:43;;;;;;;142.83;73.17;;;;;;;3.91;70.48;98933.02;251844;1134;114973;-76
2021/01/02 21:44:45;;;;;;;134.43;72.53;;;;;;;3.91;70.48;98934.80;252230;1132;114982;-75
2021/01/02 21:49:48;;;;;;;141.00;73.43;;;;;;;3.88;70.11;98930.48;251710;1134;115012;-76
2021/01/02 21:54:51;;;;;;;138.62;73.07;;;;;;;3.82;70.21;98930.70;251843;1133;114957;-76
2021/01/02 21:59:54;;;;;;;136.77;72.60;;;;;;;3.77;70.18;98930.00;251938;1132;114835;-76
2021/01/02 22:04:56;;;;;;;138.43;72.30;;;;;;;3.74;69.79;98920.47;251984;1133;114954;-76
2021/01/02 22:09:58;;;;;;;146.93;76.73;;;;;;;3.69;70.33;98917.13;251653;1133;114972;-75
2021/01/02 22:15:01;;;;;;;135.43;70.23;;;;;;;3.73;70.66;98913.46;250438;1132;115150;-75
2021/01/02 22:20:05;;;;;;;142.10;73.67;;;;;;;3.80;70.50;98906.20;251788;1133;115235;-76
2021/01/02 22:25:11;;;;;;;133.93;70.25;;;;;;;3.83;70.74;98919.25;251795;1132;114948;-76
2021/01/02 22:30:13;;;;;;;133.27;67.90;;;;;;;3.82;70.35;98925.45;251752;1134;115456;-76
2021/01/02 22:35:15;;;;;;;128.80;67.30;;;;;;;3.81;69.79;98920.25;251807;1134;115001;-76
2021/01/02 22:40:18;;;;;;;120.10;66.73;;;;;;;3.80;70.52;98911.47;251581;1132;114990;-76
2021/01/02 22:45:20;;;;;;;120.13;62.35;;;;;;;3.74;69.81;98907.30;251975;1132;114867;-75
2021/01/02 22:50:23;;;;;;;115.50;61.33;;;;;;;3.65;69.37;98917.30;251791;1132;114868;-75
2021/01/02 22:55:25;;;;;;;115.53;61.87;;;;;;;3.55;69.84;98920.25;251694;1134;114910;-76
2021/01/02 23:00:27;;;;;;;130.23;65.63;;;;;;;3.52;69.75;98922.98;252098;1133;114973;-76